createdAt,value
2022-12-05T00:00:37.812Z,54.53
2022-12-05T00:03:07.971Z,50.13
2022-12-05T00:05:42.374Z,54.03
2022-12-05T00:08:09.909Z,56.70
2022-12-05T00:10:38.306Z,56.20
2022-12-05T00:13:08.733Z,43.50
2022-12-05T00:15:40.815Z,43.63
2022-12-05T00:18:10.614Z,43.42
2022-12-05T00:20:37.902Z,44.60
2022-12-05T00:23:05.346Z,39.50
2022-12-05T00:25:36.511Z,59.88
2022-12-05T00:28:03.888Z,50.75
2022-12-05T00:30:31.129Z,50.58
2022-12-05T00:32:59.286Z,47.67
2022-12-05T00:35:26.469Z,50.90
2022-12-05T00:37:54.159Z,51.63
2022-12-05T00:40:21.396Z,50.58
2022-12-05T00:42:52.307Z,46.95
2022-12-05T00:45:20.060Z,49.23
2022-12-05T00:47:47.368Z,49.28
2022-12-05T00:50:14.727Z,48.08
2022-12-05T00:52:42.294Z,49.17
2022-12-05T00:55:13.752Z,47.75
2022-12-05T00:57:41.958Z,42.05
2022-12-05T01:00:12.848Z,41.97
2022-12-05T01:02:45.646Z,49.90
2022-12-05T01:05:16.416Z,48.47
2022-12-05T01:07:43.753Z,46.10
2022-12-05T01:10:13.748Z,44.08
2022-12-05T01:12:40.888Z,44.45
2022-12-05T01:15:09.423Z,45.13
2022-12-05T01:17:36.593Z,41.88
2022-12-05T01:20:04.597Z,43.83
2022-12-05T01:22:31.793Z,46.15
2022-12-05T01:24:59.052Z,47.90
2022-12-05T01:27:26.332Z,42.90
2022-12-05T01:29:53.724Z,43.50
2022-12-05T01:32:21.059Z,45.75
2022-12-05T01:34:48.531Z,42.67
2022-12-05T01:37:18.488Z,46.42
2022-12-05T01:39:48.232Z,43.28
2022-12-05T01:42:15.664Z,43.65
2022-12-05T01:44:42.734Z,48.90
2022-12-05T01:47:10.113Z,45.42
2022-12-05T01:49:41.961Z,45.65
2022-12-05T01:52:20.592Z,43.45
2022-12-05T01:54:51.089Z,39.25
2022-12-05T01:57:19.010Z,38.70
2022-12-05T01:59:56.229Z,42.67
2022-12-05T02:02:24.391Z,39.95
2022-12-05T02:05:03.570Z,37.58
2022-12-05T02:07:32.814Z,40.17
2022-12-05T02:10:00.953Z,42.10
2022-12-05T02:12:28.611Z,38.47
2022-12-05T02:15:38.155Z,40.95
2022-12-05T02:18:32.791Z,41.67
2022-12-05T02:21:37.635Z,43.28
2022-12-05T02:24:34.570Z,43.65
2022-12-05T02:27:29.639Z,40.90
2022-12-05T02:30:20.349Z,37.03
2022-12-05T02:33:20.188Z,38.08
2022-12-05T02:36:07.481Z,43.38
2022-12-05T02:39:30.057Z,30.08
2022-12-05T02:42:39.722Z,38.45
2022-12-05T02:45:14.371Z,35.13
2022-12-05T02:47:50.201Z,39.28
2022-12-05T02:50:28.485Z,39.58
2022-12-05T02:53:01.003Z,38.08
2022-12-05T02:55:31.114Z,39.90
2022-12-05T02:58:03.461Z,40.97
2022-12-05T03:00:30.761Z,43.75
2022-12-05T03:03:02.779Z,37.53
2022-12-05T03:08:04.668Z,45.80
2022-12-05T03:10:36.799Z,39.05
2022-12-05T03:13:18.178Z,37.80
2022-12-05T03:15:53.762Z,35.55
2022-12-05T03:18:34.862Z,37.63
2022-12-05T03:21:30.363Z,37.22
2022-12-05T03:24:06.857Z,41.65
2022-12-05T03:27:21.156Z,39.08
2022-12-05T03:29:59.288Z,37.95
2022-12-05T03:32:45.783Z,34.50
2022-12-05T03:35:39.794Z,34.40
2022-12-05T03:38:51.191Z,40.15
2022-12-05T03:41:53.726Z,35.80
2022-12-05T03:45:06.148Z,32.13
2022-12-05T03:47:45.387Z,36.67
2022-12-05T03:50:29.329Z,30.75
2022-12-05T03:53:20.703Z,38.00
2022-12-05T03:55:59.139Z,35.95
2022-12-05T03:58:36.707Z,35.08
2022-12-05T04:01:08.294Z,35.92
2022-12-05T04:04:00.912Z,40.85
2022-12-05T04:06:35.173Z,34.63
2022-12-05T04:09:16.999Z,43.00
2022-12-05T04:11:52.018Z,39.20
2022-12-05T04:14:28.847Z,35.83
2022-12-05T04:17:12.326Z,34.40
2022-12-05T04:20:13.818Z,39.42
2022-12-05T04:22:42.520Z,36.40
2022-12-05T04:25:32.043Z,45.75
2022-12-05T04:28:30.050Z,56.15
2022-12-05T04:31:08.030Z,35.00
2022-12-05T04:33:56.759Z,38.03
2022-12-05T04:36:31.620Z,36.88
2022-12-05T04:39:26.158Z,35.13
2022-12-05T04:42:26.652Z,32.05
2022-12-05T04:45:00.289Z,34.17
2022-12-05T04:47:33.104Z,29.17
2022-12-05T04:50:02.235Z,29.25
2022-12-05T04:52:31.182Z,30.50
2022-12-05T04:55:20.786Z,38.20
2022-12-05T04:58:07.981Z,34.28
2022-12-05T05:00:50.096Z,45.30
2022-12-05T05:03:56.610Z,42.30
2022-12-05T05:06:24.023Z,48.65
2022-12-05T05:08:57.558Z,40.17
2022-12-05T05:11:32.179Z,39.70
2022-12-05T05:13:59.996Z,37.13
2022-12-05T05:16:34.707Z,43.88
2022-12-05T05:19:03.159Z,35.40
2022-12-05T05:21:35.876Z,43.03
2022-12-05T05:24:15.697Z,40.55
2022-12-05T05:26:45.990Z,37.47
2022-12-05T05:29:15.496Z,44.30
2022-12-05T05:31:43.277Z,42.45
2022-12-05T05:34:16.255Z,42.08
2022-12-05T05:36:44.336Z,42.90
2022-12-05T05:39:15.880Z,39.90
2022-12-05T05:41:44.408Z,35.03
2022-12-05T05:44:11.761Z,31.30
2022-12-05T05:46:39.088Z,29.77
2022-12-05T05:49:06.475Z,32.92
2022-12-05T05:51:33.770Z,37.67
2022-12-05T05:54:01.087Z,40.00
2022-12-05T05:56:29.216Z,37.65
2022-12-05T05:59:08.447Z,35.03
2022-12-05T06:01:35.558Z,34.10
2022-12-05T06:04:08.163Z,33.25
2022-12-05T06:06:35.566Z,33.30
2022-12-05T06:09:02.786Z,43.15
2022-12-05T06:11:30.494Z,50.13
2022-12-05T06:14:03.084Z,38.97
2022-12-05T06:16:32.097Z,53.25
2022-12-05T06:18:59.822Z,66.25
2022-12-05T06:21:27.686Z,51.38
2022-12-05T06:23:55.720Z,64.97
2022-12-05T06:26:24.015Z,50.80
2022-12-05T06:28:53.571Z,62.25
2022-12-05T06:31:23.870Z,64.47
2022-12-05T06:33:51.183Z,49.55
2022-12-05T06:36:22.025Z,44.40
2022-12-05T06:38:52.253Z,38.97
2022-12-05T06:41:25.448Z,42.70
2022-12-05T06:44:02.172Z,47.15
2022-12-05T06:46:30.185Z,41.83
2022-12-05T06:48:59.087Z,49.85
2022-12-05T06:51:29.410Z,45.53
2022-12-05T06:53:57.267Z,50.13
2022-12-05T06:56:24.354Z,50.38
2022-12-05T06:58:53.622Z,57.97
2022-12-05T07:01:38.818Z,55.50
2022-12-05T07:04:24.132Z,68.50
2022-12-05T07:06:56.408Z,70.30
2022-12-05T07:12:14.646Z,54.10
2022-12-05T07:14:48.083Z,53.83
2022-12-05T07:17:17.468Z,66.82
2022-12-05T07:19:45.303Z,64.32
2022-12-05T07:22:15.970Z,60.85
2022-12-05T07:24:44.870Z,57.72
2022-12-05T07:27:15.383Z,62.10
2022-12-05T07:29:42.607Z,79.70
2022-12-05T07:32:12.266Z,53.13
2022-12-05T07:34:42.476Z,44.25
2022-12-05T07:37:13.928Z,52.80
2022-12-05T07:39:41.103Z,43.72
2022-12-05T07:42:08.263Z,60.50
2022-12-05T07:44:39.234Z,46.80
2022-12-05T07:47:06.414Z,56.38
2022-12-05T07:49:33.694Z,58.40
2022-12-05T07:52:00.764Z,54.65
2022-12-05T07:54:27.885Z,52.10
2022-12-05T07:56:55.130Z,47.67
2022-12-05T07:59:22.283Z,44.55
2022-12-05T08:01:49.859Z,47.25
2022-12-05T08:04:17.165Z,48.20
2022-12-05T08:06:44.839Z,52.38
2022-12-05T08:09:16.749Z,49.92
2022-12-05T08:11:51.054Z,40.30
2022-12-05T08:14:22.044Z,52.65
2022-12-05T08:16:49.418Z,49.55
2022-12-05T08:19:17.261Z,54.33
2022-12-05T08:21:44.668Z,49.92
2022-12-05T08:24:13.696Z,49.80
2022-12-05T08:26:43.507Z,55.83
2022-12-05T08:29:14.663Z,54.08
2022-12-05T08:31:49.034Z,54.67
2022-12-05T08:34:19.582Z,59.38
2022-12-05T08:36:47.605Z,55.47
2022-12-05T08:39:18.033Z,56.65
2022-12-05T08:41:47.420Z,67.07
2022-12-05T08:44:18.821Z,64.47
2022-12-05T08:46:49.429Z,62.67
2022-12-05T08:49:19.547Z,57.75
2022-12-05T08:51:49.250Z,56.35
2022-12-05T08:54:17.352Z,90.55
2022-12-05T08:56:44.727Z,64.60
2022-12-05T08:59:12.098Z,63.83
2022-12-05T09:01:40.669Z,54.47
2022-12-05T09:04:10.762Z,59.40
2022-12-05T09:06:40.433Z,51.72
2022-12-05T09:09:11.797Z,51.97
2022-12-05T09:11:46.751Z,50.83
2022-12-05T09:14:15.124Z,51.30
2022-12-05T09:16:46.021Z,51.25
2022-12-05T09:19:18.300Z,58.60
2022-12-05T09:24:14.161Z,55.78
2022-12-05T09:26:44.248Z,51.15
2022-12-05T09:29:18.008Z,53.30
2022-12-05T09:31:50.148Z,61.92
2022-12-05T09:34:18.606Z,69.53
2022-12-05T09:36:46.441Z,55.03
2022-12-05T09:39:14.063Z,51.33
2022-12-05T09:42:21.969Z,49.38
2022-12-05T09:45:32.227Z,47.33
2022-12-05T09:48:15.717Z,58.33
2022-12-05T09:50:50.027Z,58.45
2022-12-05T09:53:33.574Z,58.78
2022-12-05T09:56:16.208Z,57.75
2022-12-05T09:58:52.553Z,42.95
2022-12-05T10:02:14.159Z,51.67
2022-12-05T10:05:02.697Z,42.13
2022-12-05T10:08:03.288Z,55.03
2022-12-05T10:10:45.794Z,47.88
2022-12-05T10:13:28.383Z,54.33
2022-12-05T10:16:21.910Z,46.95
2022-12-05T10:19:06.615Z,53.13
2022-12-05T10:21:52.903Z,48.53
2022-12-05T10:24:33.957Z,55.78
2022-12-05T10:27:08.853Z,45.50
2022-12-05T10:29:49.262Z,47.60
2022-12-05T10:32:30.523Z,46.15
2022-12-05T10:35:19.778Z,53.33
2022-12-05T10:37:54.518Z,52.30
2022-12-05T10:40:22.596Z,45.15
2022-12-05T10:42:52.678Z,43.25
2022-12-05T10:45:23.906Z,41.70
2022-12-05T10:47:59.087Z,45.83
2022-12-05T10:50:30.684Z,50.78
2022-12-05T10:53:00.539Z,40.30
2022-12-05T10:55:59.972Z,43.40
2022-12-05T10:58:33.665Z,43.15
2022-12-05T11:01:15.986Z,47.58
2022-12-05T11:03:44.138Z,38.80
2022-12-05T11:06:44.031Z,41.78
2022-12-05T11:09:31.031Z,41.47
2022-12-05T11:12:09.238Z,47.28
2022-12-05T11:14:36.546Z,42.78
2022-12-05T11:17:06.863Z,43.97
2022-12-05T11:19:40.100Z,40.10
2022-12-05T11:22:08.282Z,39.22
2022-12-05T11:24:39.610Z,42.25
2022-12-05T11:27:32.183Z,45.73
2022-12-05T11:32:34.022Z,50.35
2022-12-05T11:35:13.259Z,46.38
2022-12-05T11:38:02.124Z,41.92
2022-12-05T11:40:57.791Z,54.45
2022-12-05T11:43:30.642Z,40.55
2022-12-05T11:46:31.783Z,40.97
2022-12-05T11:50:06.071Z,38.90
2022-12-05T11:52:58.111Z,43.05
2022-12-05T11:55:34.533Z,43.05
2022-12-05T11:58:35.136Z,51.28
2022-12-05T12:01:33.756Z,47.70
2022-12-05T12:04:25.677Z,52.03
2022-12-05T12:07:46.085Z,41.75
2022-12-05T12:10:50.862Z,54.67
2022-12-05T12:13:26.796Z,42.80
2022-12-05T12:16:22.590Z,43.00
2022-12-05T12:19:21.864Z,48.40
2022-12-05T12:22:32.835Z,48.50
2022-12-05T12:25:21.196Z,53.35
2022-12-05T12:28:08.735Z,48.38
2022-12-05T12:31:22.465Z,51.90
2022-12-05T12:34:26.685Z,50.40
2022-12-05T12:37:19.812Z,51.38
2022-12-05T12:40:19.213Z,54.72
2022-12-05T12:43:08.067Z,43.67
2022-12-05T12:46:08.088Z,47.28
2022-12-05T12:49:35.096Z,55.58
2022-12-05T12:52:14.647Z,55.97
2022-12-05T12:55:32.061Z,56.55
2022-12-05T12:58:27.584Z,47.45
2022-12-05T13:01:03.648Z,53.90
2022-12-05T13:03:51.719Z,45.85
2022-12-05T13:06:31.257Z,47.95
2022-12-05T13:09:12.565Z,51.30
2022-12-05T13:11:44.534Z,47.78
2022-12-05T13:14:24.987Z,45.67
2022-12-05T13:16:54.833Z,51.78
2022-12-05T13:19:53.954Z,63.38
2022-12-05T13:22:26.678Z,49.38
2022-12-05T13:24:55.282Z,51.90
2022-12-05T13:27:27.534Z,50.13
2022-12-05T13:30:02.698Z,51.55
2022-12-05T13:32:43.851Z,49.22
2022-12-05T13:35:49.685Z,56.20
2022-12-05T13:38:50.466Z,51.00
2022-12-05T13:41:36.725Z,47.83
2022-12-05T13:44:12.537Z,43.58
2022-12-05T13:46:43.848Z,62.10
2022-12-05T13:49:48.166Z,56.60
2022-12-05T13:52:30.296Z,51.90
2022-12-05T13:55:35.622Z,61.50
2022-12-05T13:58:23.635Z,61.90
2022-12-05T14:00:52.358Z,49.88
2022-12-05T14:03:36.857Z,60.78
2022-12-05T14:06:06.622Z,70.07
2022-12-05T14:08:39.909Z,72.65
2022-12-05T14:11:13.713Z,65.00
2022-12-05T14:13:43.714Z,74.68
2022-12-05T14:16:31.658Z,60.28
2022-12-05T14:19:34.394Z,73.85
2022-12-05T14:22:38.570Z,72.90
2022-12-05T14:25:57.392Z,63.38
2022-12-05T14:28:58.792Z,62.00
2022-12-05T14:32:04.692Z,57.38
2022-12-05T14:34:36.614Z,65.60
2022-12-05T14:37:15.612Z,60.58
2022-12-05T14:39:49.111Z,68.50
2022-12-05T14:42:51.299Z,65.03
2022-12-05T14:45:50.946Z,82.88
2022-12-05T14:48:17.986Z,58.83
2022-12-05T14:50:51.077Z,70.05
2022-12-05T14:53:21.243Z,73.20
2022-12-05T14:55:54.300Z,72.57
2022-12-05T14:58:52.011Z,65.07
2022-12-05T15:01:54.934Z,86.50
2022-12-05T15:05:12.287Z,61.67
2022-12-05T15:07:40.505Z,69.82
2022-12-05T15:10:14.152Z,68.45
2022-12-05T15:12:53.738Z,55.83
2022-12-05T15:15:36.674Z,58.10
2022-12-05T15:18:31.952Z,59.25
2022-12-05T15:21:14.757Z,61.60
2022-12-05T15:23:46.461Z,62.15
2022-12-05T15:29:21.176Z,59.55
2022-12-05T15:31:55.313Z,59.85
2022-12-05T15:34:53.140Z,64.38
2022-12-05T15:37:35.111Z,60.83
2022-12-05T15:40:17.985Z,62.25
2022-12-05T15:43:24.352Z,58.97
2022-12-05T15:46:06.282Z,68.32
2022-12-05T15:48:33.462Z,62.42
2022-12-05T15:51:03.187Z,64.38
2022-12-05T15:53:45.014Z,61.58
2022-12-05T15:56:39.489Z,67.47
2022-12-05T15:59:18.711Z,60.83
2022-12-05T16:02:23.715Z,65.10
2022-12-05T16:04:57.155Z,72.07
2022-12-05T16:07:34.034Z,66.13
2022-12-05T16:10:02.710Z,72.90
2022-12-05T16:12:42.483Z,78.00
2022-12-05T16:15:24.214Z,79.45
2022-12-05T16:18:01.662Z,77.28
2022-12-05T16:20:33.185Z,87.78
2022-12-05T16:23:30.394Z,84.90
2022-12-05T16:26:21.426Z,73.45
2022-12-05T16:29:00.969Z,83.32
2022-12-05T16:31:30.097Z,82.95
2022-12-05T16:34:14.538Z,68.68
2022-12-05T16:36:54.487Z,69.75
2022-12-05T16:39:23.595Z,68.15
2022-12-05T16:41:51.588Z,62.33
2022-12-05T16:44:28.598Z,63.72
2022-12-05T16:47:00.498Z,59.85
2022-12-05T16:49:30.862Z,65.88
2022-12-05T16:52:14.638Z,70.47
2022-12-05T16:54:46.066Z,68.78
2022-12-05T16:57:16.402Z,70.78
2022-12-05T16:59:45.844Z,69.97
2022-12-05T17:02:19.400Z,70.78
2022-12-05T17:04:47.259Z,70.38
2022-12-05T17:07:14.727Z,84.53
2022-12-05T17:09:44.388Z,77.43
2022-12-05T17:12:20.820Z,72.88
2022-12-05T17:14:50.370Z,74.13
2022-12-05T17:17:19.291Z,76.68
2022-12-05T17:19:46.710Z,79.13
2022-12-05T17:22:16.136Z,70.03
2022-12-05T17:24:43.957Z,65.70
2022-12-05T17:27:14.668Z,67.40
2022-12-05T17:29:44.685Z,69.75
2022-12-05T17:32:13.429Z,71.10
2022-12-05T17:34:42.956Z,65.13
2022-12-05T17:37:10.197Z,63.35
2022-12-05T17:39:37.454Z,59.17
2022-12-05T17:42:04.834Z,63.70
2022-12-05T17:44:32.136Z,65.68
2022-12-05T17:47:07.770Z,62.42
2022-12-05T17:49:36.012Z,61.33
2022-12-05T17:54:54.178Z,62.95
2022-12-05T17:57:22.590Z,66.38
2022-12-05T17:59:49.981Z,62.60
2022-12-05T18:02:20.273Z,65.88
2022-12-05T18:04:47.621Z,54.47
2022-12-05T18:07:17.379Z,56.33
2022-12-05T18:09:44.656Z,58.50
2022-12-05T18:12:11.979Z,58.75
2022-12-05T18:14:42.227Z,59.15
2022-12-05T18:17:11.892Z,57.97
2022-12-05T18:19:39.182Z,56.97
2022-12-05T18:22:08.884Z,58.60
2022-12-05T18:24:36.053Z,63.10
2022-12-05T18:27:05.523Z,57.97
2022-12-05T18:29:32.838Z,61.17
2022-12-05T18:32:00.354Z,58.58
2022-12-05T18:34:27.644Z,57.60
2022-12-05T18:36:57.463Z,65.28
2022-12-05T18:39:24.902Z,57.15
2022-12-05T18:41:52.592Z,70.93
2022-12-05T18:44:21.118Z,84.15
2022-12-05T18:46:48.773Z,79.45
2022-12-05T18:49:16.163Z,72.47
2022-12-05T18:51:43.396Z,84.18
2022-12-05T18:54:10.905Z,88.07
2022-12-05T18:56:40.904Z,66.57
2022-12-05T18:59:14.673Z,78.85
2022-12-05T19:01:45.999Z,71.05
2022-12-05T19:04:17.223Z,85.83
2022-12-05T19:07:02.053Z,78.83
2022-12-05T19:09:34.016Z,70.25
2022-12-05T19:12:01.769Z,69.50
2022-12-05T19:14:33.193Z,63.90
2022-12-05T19:17:00.948Z,68.97
2022-12-05T19:19:29.429Z,69.93
2022-12-05T19:21:59.586Z,67.53
2022-12-05T19:24:27.160Z,69.43
2022-12-05T19:26:54.414Z,66.88
2022-12-05T19:29:21.849Z,65.07
2022-12-05T19:31:49.857Z,65.15
2022-12-05T19:34:17.070Z,69.03
2022-12-05T19:36:46.365Z,67.90
2022-12-05T19:39:20.693Z,62.00
2022-12-05T19:41:49.381Z,62.17
2022-12-05T19:44:17.449Z,66.00
2022-12-05T19:46:47.387Z,153.88
2022-12-05T19:49:19.016Z,112.30
2022-12-05T19:51:48.625Z,118.82
2022-12-05T19:54:22.226Z,94.93
2022-12-05T19:56:58.537Z,70.95
2022-12-05T19:59:28.526Z,89.32
2022-12-05T20:01:58.130Z,81.80
2022-12-05T20:04:25.822Z,79.32
2022-12-05T20:06:53.185Z,74.65
2022-12-05T20:09:23.044Z,78.55
2022-12-05T20:11:55.544Z,74.22
2022-12-05T20:14:28.905Z,76.18
2022-12-05T20:16:59.059Z,75.07
2022-12-05T20:19:29.984Z,72.03
2022-12-05T20:21:58.875Z,72.07
2022-12-05T20:24:26.128Z,75.78
2022-12-05T20:26:54.998Z,95.43
2022-12-05T20:29:22.391Z,83.45
2022-12-05T20:31:53.214Z,85.47
2022-12-05T20:34:20.852Z,87.82
2022-12-05T20:36:48.219Z,80.82
2022-12-05T20:39:20.006Z,81.47
2022-12-05T20:41:52.725Z,82.32
2022-12-05T20:44:20.053Z,88.65
2022-12-05T20:46:50.689Z,91.05
2022-12-05T20:49:18.714Z,83.03
2022-12-05T20:51:50.352Z,91.68
2022-12-05T20:54:21.351Z,91.78
2022-12-05T20:56:56.176Z,92.25
2022-12-05T20:59:32.635Z,95.40
2022-12-05T21:02:02.872Z,87.38
2022-12-05T21:04:40.041Z,85.65
2022-12-05T21:07:08.829Z,86.60
2022-12-05T21:09:39.341Z,91.13
2022-12-05T21:12:07.386Z,90.82
2022-12-05T21:14:42.427Z,98.45
2022-12-05T21:17:27.937Z,100.00
2022-12-05T21:20:01.857Z,98.88
2022-12-05T21:22:36.263Z,116.15
2022-12-05T21:25:14.758Z,87.50
2022-12-05T21:27:55.181Z,97.25
2022-12-05T21:30:30.052Z,113.63
2022-12-05T21:33:06.520Z,96.22
2022-12-05T21:35:46.602Z,106.70
2022-12-05T21:38:49.536Z,114.40
2022-12-05T21:41:26.069Z,99.43
2022-12-05T21:44:03.277Z,106.63
2022-12-05T21:46:38.109Z,100.63
2022-12-05T21:49:24.402Z,100.85
2022-12-05T21:52:30.715Z,100.90
2022-12-05T21:55:16.701Z,104.07
2022-12-05T21:57:48.379Z,101.32
2022-12-05T22:00:18.327Z,103.90
2022-12-05T22:02:46.677Z,100.18
2022-12-05T22:05:20.313Z,97.13
2022-12-05T22:07:54.392Z,109.90
2022-12-05T22:10:28.253Z,116.55
2022-12-05T22:12:57.795Z,102.77
2022-12-05T22:15:31.441Z,102.18
2022-12-05T22:18:01.686Z,101.00
2022-12-05T22:20:30.259Z,102.78
2022-12-05T22:23:01.031Z,94.28
2022-12-05T22:25:32.171Z,106.15
2022-12-05T22:28:07.612Z,111.30
2022-12-05T22:30:39.414Z,115.88
2022-12-05T22:33:10.584Z,113.40
2022-12-05T22:35:41.521Z,112.20
2022-12-05T22:38:12.111Z,114.28
2022-12-05T22:40:39.964Z,112.47
2022-12-05T22:43:07.855Z,113.07
2022-12-05T22:45:36.725Z,112.38
2022-12-05T22:48:05.111Z,121.13
2022-12-05T22:50:32.904Z,117.32
2022-12-05T22:53:05.498Z,113.60
2022-12-05T22:55:43.149Z,111.55
2022-12-05T22:58:16.847Z,109.60
2022-12-05T23:00:45.702Z,110.70
2022-12-05T23:03:19.699Z,103.70
2022-12-05T23:05:48.889Z,118.40
2022-12-05T23:08:22.422Z,108.55
2022-12-05T23:10:50.642Z,108.15
2022-12-05T23:13:18.679Z,106.60
2022-12-05T23:15:46.452Z,115.68
2022-12-05T23:18:16.187Z,113.18
2022-12-05T23:20:47.234Z,110.55
2022-12-05T23:23:15.194Z,110.35
2022-12-05T23:25:45.834Z,102.30
2022-12-05T23:28:14.005Z,118.15
2022-12-05T23:30:45.179Z,98.03
2022-12-05T23:33:14.412Z,106.93
2022-12-05T23:35:45.699Z,115.70
2022-12-05T23:38:13.924Z,100.17
2022-12-05T23:40:41.845Z,100.68
2022-12-05T23:43:09.661Z,99.68
2022-12-05T23:45:42.162Z,100.28
2022-12-05T23:48:09.845Z,100.72
2022-12-05T23:50:37.871Z,111.43
2022-12-05T23:53:08.895Z,104.50
2022-12-05T23:55:37.263Z,90.22
2022-12-05T23:58:05.480Z,101.80
